createdAt,value
2022-10-03T00:01:12.436Z,0.01
2022-10-03T00:03:10.398Z,0.01
2022-10-03T00:05:09.060Z,0.01
2022-10-03T00:07:09.443Z,0.56
2022-10-03T00:09:09.568Z,0.01
2022-10-03T00:11:09.499Z,0.01
2022-10-03T00:13:08.825Z,0.01
2022-10-03T00:15:08.956Z,0.01
2022-10-03T00:17:09.788Z,0.01
2022-10-03T00:19:08.765Z,0.01
2022-10-03T00:21:09.147Z,0.01
2022-10-03T00:23:09.677Z,0.01
2022-10-03T00:25:09.278Z,0.56
2022-10-03T00:27:08.939Z,0.01
2022-10-03T00:29:09.691Z,0.01
2022-10-03T00:31:09.528Z,0.56
2022-10-03T00:33:09.514Z,0.56
2022-10-03T00:35:09.431Z,0.56
2022-10-03T00:37:09.162Z,0.01
2022-10-03T00:39:09.089Z,0.56
2022-10-03T00:41:08.931Z,0.56
2022-10-03T00:43:09.393Z,0.56
2022-10-03T00:45:08.879Z,0.01
2022-10-03T00:47:09.214Z,0.01
2022-10-03T00:49:09.132Z,0.01
2022-10-03T00:51:09.140Z,0.57
2022-10-03T00:53:09.307Z,0.57
2022-10-03T00:55:09.573Z,0.01
2022-10-03T00:57:09.184Z,0.57
2022-10-03T00:59:09.639Z,0.57
2022-10-03T01:01:12.401Z,0.56
2022-10-03T01:03:09.846Z,0.57
2022-10-03T01:05:08.718Z,0.57
2022-10-03T01:07:09.296Z,0.57
2022-10-03T01:09:08.763Z,0.57
2022-10-03T01:11:09.092Z,0.57
2022-10-03T01:13:09.063Z,0.57
2022-10-03T01:15:08.993Z,0.01
2022-10-03T01:17:09.021Z,0.01
2022-10-03T01:19:09.299Z,0.01
2022-10-03T01:21:08.908Z,0.57
2022-10-03T01:23:09.639Z,0.57
2022-10-03T01:25:09.036Z,0.57
2022-10-03T01:27:08.918Z,0.01
2022-10-03T01:29:09.624Z,0.01
2022-10-03T01:31:09.379Z,0.01
2022-10-03T01:33:09.482Z,0.01
2022-10-03T01:35:15.425Z,0.01
2022-10-03T01:37:09.977Z,0.01
2022-10-03T01:39:09.339Z,0.57
2022-10-03T01:41:09.679Z,0.57
2022-10-03T01:43:09.033Z,0.57
2022-10-03T01:45:08.989Z,0.57
2022-10-03T01:47:09.864Z,0.57
2022-10-03T01:49:09.627Z,0.57
2022-10-03T01:51:08.893Z,0.01
2022-10-03T01:53:09.221Z,0.01
2022-10-03T01:55:09.347Z,0.01
2022-10-03T01:57:09.073Z,0.01
2022-10-03T01:59:09.207Z,0.01
2022-10-03T02:01:14.876Z,0.01
2022-10-03T02:03:09.255Z,0.01
2022-10-03T02:05:09.244Z,0.01
2022-10-03T02:07:09.056Z,0.01
2022-10-03T02:09:09.523Z,0.57
2022-10-03T02:11:09.060Z,0.57
2022-10-03T02:13:09.305Z,0.57
2022-10-03T02:15:09.117Z,0.57
2022-10-03T02:17:09.908Z,0.57
2022-10-03T02:19:09.482Z,0.57
2022-10-03T02:21:09.566Z,0.57
2022-10-03T02:23:08.974Z,0.57
2022-10-03T02:25:09.134Z,0.57
2022-10-03T02:27:10.074Z,0.57
2022-10-03T02:29:09.969Z,0.57
2022-10-03T02:31:09.229Z,0.57
2022-10-03T02:33:08.945Z,0.57
2022-10-03T02:35:08.862Z,0.57
2022-10-03T02:37:08.948Z,0.57
2022-10-03T02:39:09.397Z,0.01
2022-10-03T02:41:09.015Z,0.01
2022-10-03T02:43:09.514Z,0.01
2022-10-03T02:45:09.404Z,0.57
2022-10-03T02:47:09.247Z,0.57
2022-10-03T02:49:38.597Z,0.01
2022-10-03T02:51:09.270Z,0.01
2022-10-03T02:53:09.010Z,0.01
2022-10-03T02:55:09.483Z,0.01
2022-10-03T02:57:09.383Z,0.01
2022-10-03T02:59:08.746Z,0.01
2022-10-03T03:01:12.293Z,0.01
2022-10-03T03:03:09.573Z,0.01
2022-10-03T03:05:09.371Z,0.01
2022-10-03T03:07:09.467Z,0.01
2022-10-03T03:09:09.386Z,0.57
2022-10-03T03:11:09.297Z,0.57
2022-10-03T03:13:15.074Z,0.01
2022-10-03T03:15:09.638Z,0.01
2022-10-03T03:17:09.682Z,0.01
2022-10-03T03:19:09.325Z,0.01
2022-10-03T03:21:09.280Z,0.57
2022-10-03T03:23:09.292Z,0.57
2022-10-03T03:25:09.123Z,0.57
2022-10-03T03:27:09.625Z,0.58
2022-10-03T03:29:09.469Z,0.58
2022-10-03T03:31:08.924Z,0.58
2022-10-03T03:33:09.837Z,0.01
2022-10-03T03:35:09.004Z,0.01
2022-10-03T03:37:08.633Z,0.01
2022-10-03T03:39:09.528Z,0.58
2022-10-03T03:41:08.867Z,0.58
2022-10-03T03:43:09.190Z,0.58
2022-10-03T03:45:09.384Z,0.01
2022-10-03T03:47:09.065Z,0.01
2022-10-03T03:49:09.282Z,0.01
2022-10-03T03:51:08.988Z,0.58
2022-10-03T03:53:09.192Z,0.58
2022-10-03T03:55:09.061Z,0.58
2022-10-03T03:57:09.620Z,0.57
2022-10-03T03:59:09.098Z,0.57
2022-10-03T04:01:12.211Z,0.57
2022-10-03T04:03:09.793Z,0.58
2022-10-03T04:05:09.528Z,0.58
2022-10-03T04:07:09.335Z,0.58
2022-10-03T04:09:09.422Z,0.01
2022-10-03T04:11:09.335Z,0.01
2022-10-03T04:13:09.156Z,0.01
2022-10-03T04:15:08.646Z,0.58
2022-10-03T04:17:09.505Z,0.58
2022-10-03T04:19:08.856Z,0.58
2022-10-03T04:21:09.380Z,0.58
2022-10-03T04:23:09.615Z,0.58
2022-10-03T04:25:09.219Z,0.58
2022-10-03T04:27:09.446Z,0.01
2022-10-03T04:29:09.495Z,0.01
2022-10-03T04:31:09.539Z,0.01
2022-10-03T04:33:08.825Z,0.01
2022-10-03T04:35:08.749Z,0.01
2022-10-03T04:37:09.354Z,0.01
2022-10-03T04:39:08.866Z,0.01
2022-10-03T04:41:09.711Z,0.01
2022-10-03T04:43:09.756Z,0.01
2022-10-03T04:45:09.166Z,0.01
2022-10-03T04:47:09.682Z,0.01
2022-10-03T04:49:09.650Z,0.01
2022-10-03T04:51:09.008Z,0.58
2022-10-03T04:53:09.008Z,0.58
2022-10-03T04:55:09.513Z,0.58
2022-10-03T04:57:09.361Z,0.58
2022-10-03T04:59:13.167Z,0.58
2022-10-03T05:01:12.204Z,0.58
2022-10-03T05:03:09.489Z,0.58
2022-10-03T05:05:09.009Z,0.58
2022-10-03T05:07:09.155Z,0.58
2022-10-03T05:09:09.924Z,0.58
2022-10-03T05:11:16.092Z,0.58
2022-10-03T05:13:09.742Z,0.58
2022-10-03T05:15:09.485Z,0.58
2022-10-03T05:17:10.086Z,0.58
2022-10-03T05:19:12.398Z,0.58
2022-10-03T05:21:09.766Z,0.58
2022-10-03T05:23:09.221Z,0.58
2022-10-03T05:25:09.135Z,0.58
2022-10-03T05:27:47.660Z,0.58
2022-10-03T05:29:10.025Z,0.58
2022-10-03T05:31:09.190Z,0.58
2022-10-03T05:33:09.384Z,0.58
2022-10-03T05:35:08.749Z,0.58
2022-10-03T05:37:09.670Z,0.58
2022-10-03T05:39:09.144Z,0.58
2022-10-03T05:41:08.753Z,0.58
2022-10-03T05:43:29.995Z,0.58
2022-10-03T05:45:09.553Z,0.58
2022-10-03T05:47:09.174Z,0.58
2022-10-03T05:49:09.197Z,0.58
2022-10-03T05:51:15.478Z,0.58
2022-10-03T05:53:09.136Z,0.58
2022-10-03T05:55:09.194Z,0.58
2022-10-03T05:57:14.816Z,0.03
2022-10-03T05:59:08.780Z,0.03
2022-10-03T06:01:12.210Z,0.03
2022-10-03T06:03:10.666Z,0.02
2022-10-03T06:05:13.843Z,0.02
2022-10-03T06:07:09.729Z,0.02
2022-10-03T06:09:09.521Z,1.06
2022-10-03T06:11:08.863Z,1.06
2022-10-03T06:13:09.607Z,1.06
2022-10-03T06:15:09.374Z,1.06
2022-10-03T06:17:09.934Z,1.06
2022-10-03T06:19:08.760Z,1.06
2022-10-03T06:21:09.653Z,1.06
2022-10-03T06:23:13.670Z,1.06
2022-10-03T06:25:09.344Z,1.06
2022-10-03T06:27:09.759Z,1.06
2022-10-03T06:29:09.957Z,1.06
2022-10-03T06:31:09.269Z,1.06
2022-10-03T06:33:09.206Z,1.06
2022-10-03T06:35:09.035Z,1.06
2022-10-03T06:37:09.118Z,1.06
2022-10-03T06:39:08.960Z,1.06
2022-10-03T06:41:16.656Z,1.06
2022-10-03T06:43:09.327Z,1.06
2022-10-03T06:45:09.183Z,1.06
2022-10-03T06:47:09.925Z,1.06
2022-10-03T06:49:09.498Z,1.06
2022-10-03T06:51:09.496Z,1.06
2022-10-03T06:53:09.625Z,1.06
2022-10-03T06:55:08.906Z,1.06
2022-10-03T06:57:12.704Z,1.06
2022-10-03T06:59:09.245Z,1.06
2022-10-03T07:01:12.374Z,1.06
2022-10-03T07:03:10.303Z,1.06
2022-10-03T07:05:08.875Z,1.06
2022-10-03T07:07:09.413Z,1.06
2022-10-03T07:09:09.628Z,1.06
2022-10-03T07:11:09.136Z,1.06
2022-10-03T07:13:10.734Z,1.06
2022-10-03T07:15:09.550Z,4.45
2022-10-03T07:17:34.781Z,0.04
2022-10-03T07:19:09.540Z,0.04
2022-10-03T07:21:14.732Z,0.02
2022-10-03T07:23:09.105Z,1.72
2022-10-03T07:25:09.299Z,1.72
2022-10-03T07:27:09.570Z,1.72
2022-10-03T07:29:09.642Z,1.72
2022-10-03T07:31:10.007Z,1.72
2022-10-03T07:33:09.364Z,1.72
2022-10-03T07:35:09.578Z,1.72
2022-10-03T07:37:09.517Z,1.72
2022-10-03T07:39:09.177Z,1.72
2022-10-03T07:41:09.408Z,1.72
2022-10-03T07:43:09.605Z,1.72
2022-10-03T07:45:09.197Z,1.72
2022-10-03T07:47:10.029Z,1.72
2022-10-03T07:49:09.415Z,1.72
2022-10-03T07:51:09.331Z,1.72
2022-10-03T07:53:09.072Z,1.72
2022-10-03T07:55:09.710Z,1.72
2022-10-03T07:57:16.178Z,1.72
2022-10-03T07:59:08.807Z,1.72
2022-10-03T08:01:14.689Z,1.72
2022-10-03T08:03:09.481Z,1.72
2022-10-03T08:05:10.061Z,1.72
2022-10-03T08:07:09.674Z,1.72
2022-10-03T08:09:09.226Z,1.72
2022-10-03T08:11:14.522Z,1.72
2022-10-03T08:13:09.502Z,1.72
2022-10-03T08:15:09.014Z,1.72
2022-10-03T08:17:09.556Z,1.72
2022-10-03T08:19:10.792Z,1.72
2022-10-03T08:21:09.557Z,1.72
2022-10-03T08:23:09.532Z,1.72
2022-10-03T08:25:14.024Z,1.72
2022-10-03T08:27:08.872Z,6.14
2022-10-03T08:29:09.763Z,5.86
2022-10-03T08:31:09.304Z,5.86
2022-10-03T08:33:11.510Z,0.02
2022-10-03T08:35:09.355Z,0.02
2022-10-03T08:37:08.965Z,0.02
2022-10-03T08:39:13.241Z,1.35
2022-10-03T08:41:09.133Z,0.01
2022-10-03T08:43:09.282Z,0.01
2022-10-03T08:45:15.230Z,1.07
2022-10-03T08:47:10.244Z,0.01
2022-10-03T08:49:09.143Z,0.01
2022-10-03T08:51:13.445Z,0.93
2022-10-03T08:53:09.130Z,0.01
2022-10-03T08:55:09.239Z,0.01
2022-10-03T08:57:09.743Z,0.01
2022-10-03T08:59:09.757Z,0.85
2022-10-03T09:01:11.770Z,0.85
2022-10-03T09:03:44.615Z,0.01
2022-10-03T09:05:08.863Z,0.01
2022-10-03T09:07:39.035Z,0.01
2022-10-03T09:09:08.939Z,0.81
2022-10-03T09:11:09.056Z,0.81
2022-10-03T09:13:09.649Z,0.81
2022-10-03T09:15:09.158Z,0.01
2022-10-03T09:17:15.882Z,0.8
2022-10-03T09:19:09.755Z,0.8
2022-10-03T09:21:09.490Z,0.01
2022-10-03T09:23:09.737Z,0.01
2022-10-03T09:25:09.074Z,0.01
2022-10-03T09:27:09.601Z,0.75
2022-10-03T09:29:10.976Z,0.01
2022-10-03T09:31:09.646Z,0.01
2022-10-03T09:33:09.371Z,0.75
2022-10-03T09:35:09.459Z,0.01
2022-10-03T09:37:09.293Z,0.01
2022-10-03T09:39:09.024Z,0.01
2022-10-03T09:41:15.768Z,0.75
2022-10-03T09:43:09.671Z,0.75
2022-10-03T09:45:08.949Z,0.01
2022-10-03T09:47:09.915Z,0.74
2022-10-03T09:49:09.677Z,0.74
2022-10-03T09:51:09.266Z,0.01
2022-10-03T09:53:16.298Z,0.72
2022-10-03T09:55:08.918Z,0.72
2022-10-03T09:57:09.381Z,0.01
2022-10-03T09:59:09.032Z,0.01
2022-10-03T10:01:11.898Z,0.01
2022-10-03T10:03:09.785Z,0.72
2022-10-03T10:05:38.519Z,0.01
2022-10-03T10:07:10.625Z,0.01
2022-10-03T10:09:09.023Z,0.71
2022-10-03T10:11:09.946Z,0.01
2022-10-03T10:13:09.575Z,0.01
2022-10-03T10:15:16.147Z,0.01
2022-10-03T10:17:11.231Z,0.01
2022-10-03T10:19:09.192Z,0.01
2022-10-03T10:21:09.303Z,0.01
2022-10-03T10:23:08.903Z,0.01
2022-10-03T10:25:09.484Z,0.01
2022-10-03T10:27:15.086Z,0.01
2022-10-03T10:29:09.599Z,0.7
2022-10-03T10:31:09.821Z,0.7
2022-10-03T10:33:15.388Z,0.01
2022-10-03T10:35:09.076Z,0.01
2022-10-03T10:37:10.915Z,0.01
2022-10-03T10:39:08.888Z,0.01
2022-10-03T10:41:11.297Z,0.01
2022-10-03T10:43:11.608Z,0.01
2022-10-03T10:45:09.160Z,0.01
2022-10-03T10:47:09.562Z,0.72
2022-10-03T10:49:14.989Z,0.72
2022-10-03T10:51:09.143Z,0.01
2022-10-03T10:53:09.622Z,0.01
2022-10-03T10:55:09.084Z,0.01
2022-10-03T10:57:09.658Z,0.01
2022-10-03T10:59:09.170Z,0.01
2022-10-03T11:01:13.162Z,0.01
2022-10-03T11:03:10.142Z,0.76
2022-10-03T11:05:10.089Z,0.76
2022-10-03T11:07:09.560Z,0.76
2022-10-03T11:09:09.011Z,0.01
2022-10-03T11:11:09.189Z,0.01
2022-10-03T11:13:09.368Z,0.01
2022-10-03T11:15:10.026Z,0.76
2022-10-03T11:17:10.106Z,0.77
2022-10-03T11:19:09.425Z,0.77
2022-10-03T11:21:10.215Z,0.01
2022-10-03T11:23:15.921Z,0.01
2022-10-03T11:25:09.535Z,0.01
2022-10-03T11:27:09.621Z,0.01
2022-10-03T11:29:14.548Z,0.01
2022-10-03T11:31:09.233Z,0.01
2022-10-03T11:33:09.559Z,0.77
2022-10-03T11:35:08.777Z,0.01
2022-10-03T11:37:09.376Z,0.01
2022-10-03T11:39:09.135Z,0.01
2022-10-03T11:41:09.766Z,0.01
2022-10-03T11:43:09.045Z,0.01
2022-10-03T11:45:09.759Z,0.01
2022-10-03T11:47:09.461Z,0.01
2022-10-03T11:49:08.988Z,0.01
2022-10-03T11:51:10.637Z,0.01
2022-10-03T11:53:09.046Z,0.72
2022-10-03T11:55:37.926Z,0.72
2022-10-03T11:57:09.472Z,0.01
2022-10-03T11:59:09.418Z,0.69
2022-10-03T12:01:10.398Z,0.69
2022-10-03T12:03:10.354Z,0.01
2022-10-03T12:05:09.293Z,0.68
2022-10-03T12:07:09.703Z,0.68
2022-10-03T12:09:09.825Z,0.69
2022-10-03T12:11:09.116Z,0.69
2022-10-03T12:13:09.309Z,0.69
2022-10-03T12:15:08.783Z,0.7
2022-10-03T12:17:10.128Z,0.01
2022-10-03T12:19:09.057Z,0.01
2022-10-03T12:21:09.548Z,0.01
2022-10-03T12:23:10.037Z,0.71
2022-10-03T12:25:09.667Z,0.71
2022-10-03T12:27:09.091Z,0.74
2022-10-03T12:29:09.848Z,0.74
2022-10-03T12:31:09.812Z,0.74
2022-10-03T12:33:09.190Z,0.01
2022-10-03T12:35:09.204Z,0.75
2022-10-03T12:37:09.706Z,0.75
2022-10-03T12:39:13.758Z,0.01
2022-10-03T12:41:09.242Z,0.01
2022-10-03T12:43:09.409Z,0.01
2022-10-03T12:45:09.221Z,0.01
2022-10-03T12:47:14.501Z,0.01
2022-10-03T12:49:09.127Z,0.01
2022-10-03T12:51:09.189Z,0.01
2022-10-03T12:53:09.056Z,0.01
2022-10-03T12:55:11.830Z,0.01
2022-10-03T12:57:09.279Z,0.77
2022-10-03T12:59:09.383Z,0.01
2022-10-03T13:01:15.602Z,0.01
2022-10-03T13:03:09.610Z,0.01
2022-10-03T13:05:09.539Z,0.01
2022-10-03T13:07:47.141Z,0.01
2022-10-03T13:09:08.795Z,0.01
2022-10-03T13:11:09.495Z,0.75
2022-10-03T13:13:13.067Z,0.75
2022-10-03T13:15:09.319Z,0.73
2022-10-03T13:17:10.214Z,0.01
2022-10-03T13:19:12.271Z,0.01
2022-10-03T13:21:33.416Z,0.01
2022-10-03T13:23:09.517Z,0.01
2022-10-03T13:25:08.978Z,0.01
2022-10-03T13:27:15.140Z,0.71
2022-10-03T13:29:09.652Z,0.01
2022-10-03T13:31:09.236Z,0.01
2022-10-03T13:33:09.120Z,0.01
2022-10-03T13:35:09.630Z,0.01
2022-10-03T13:37:09.082Z,0.01
2022-10-03T13:39:09.780Z,0.7
2022-10-03T13:41:09.176Z,0.7
2022-10-03T13:43:09.357Z,0.7
2022-10-03T13:45:09.091Z,0.01
2022-10-03T13:47:10.314Z,0.01
2022-10-03T13:49:13.510Z,0.01
2022-10-03T13:51:09.985Z,0.7
2022-10-03T13:53:09.359Z,0.01
2022-10-03T13:55:09.705Z,0.01
2022-10-03T13:57:09.168Z,0.01
2022-10-03T13:59:09.519Z,0.01
2022-10-03T14:01:09.214Z,0.01
2022-10-03T14:03:10.123Z,0.01
2022-10-03T14:05:09.414Z,0.01
2022-10-03T14:07:11.831Z,0.01
2022-10-03T14:09:09.763Z,0.01
2022-10-03T14:11:10.175Z,0.7
2022-10-03T14:13:37.023Z,0.7
2022-10-03T14:15:10.806Z,0.7
2022-10-03T14:17:09.897Z,0.01
2022-10-03T14:19:09.018Z,0.01
2022-10-03T14:21:09.666Z,0.71
2022-10-03T14:23:09.243Z,0.71
2022-10-03T14:25:11.279Z,0.71
2022-10-03T14:27:09.100Z,0.71
2022-10-03T14:29:09.581Z,0.72
2022-10-03T14:31:28.461Z,0.72
2022-10-03T14:33:39.202Z,0.01
2022-10-03T14:35:08.858Z,0.01
2022-10-03T14:37:09.281Z,0.01
2022-10-03T14:39:09.306Z,0.01
2022-10-03T14:41:09.552Z,0.01
2022-10-03T14:43:09.632Z,0.01
2022-10-03T14:45:10.230Z,0.01
2022-10-03T14:47:10.145Z,0.7
2022-10-03T14:49:25.216Z,0.7
2022-10-03T14:51:09.156Z,0.7
2022-10-03T14:53:09.958Z,0.01
2022-10-03T14:55:09.812Z,0.01
2022-10-03T14:57:09.834Z,0.01
2022-10-03T14:59:19.558Z,0.01
2022-10-03T15:01:14.107Z,0.01
2022-10-03T15:03:16.639Z,0.01
2022-10-03T15:05:09.318Z,0.01
2022-10-03T15:07:08.925Z,0.01
2022-10-03T15:09:09.681Z,0.01
2022-10-03T15:11:09.826Z,0.01
2022-10-03T15:13:08.993Z,0.01
2022-10-03T15:15:08.974Z,0.01
2022-10-03T15:17:09.951Z,0.01
2022-10-03T15:19:08.921Z,0.01
2022-10-03T15:21:09.654Z,0.01
2022-10-03T15:23:09.965Z,0.01
2022-10-03T15:25:10.997Z,0.01
2022-10-03T15:27:09.189Z,0.01
2022-10-03T15:29:09.663Z,0.01
2022-10-03T15:31:16.817Z,0.01
2022-10-03T15:33:09.312Z,0.01
2022-10-03T15:35:09.486Z,0.01
2022-10-03T15:37:09.301Z,0.01
2022-10-03T15:39:09.577Z,0.01
2022-10-03T15:41:09.627Z,0.01
2022-10-03T15:43:08.990Z,0.01
2022-10-03T15:45:10.935Z,0.01
2022-10-03T15:47:10.299Z,0.01
2022-10-03T15:49:10.719Z,0.01
2022-10-03T15:51:09.639Z,0.01
2022-10-03T15:53:36.657Z,0.01
2022-10-03T15:55:23.360Z,0.01
2022-10-03T15:57:09.108Z,0.01
2022-10-03T15:59:09.579Z,0.01
2022-10-03T16:01:14.428Z,0.01
2022-10-03T16:03:10.109Z,0.01
2022-10-03T16:05:09.613Z,0.01
2022-10-03T16:07:09.939Z,0.01
2022-10-03T16:09:09.210Z,0.01
2022-10-03T16:11:09.226Z,4.74
2022-10-03T16:13:08.852Z,4.74
2022-10-03T16:15:10.445Z,4.74
2022-10-03T16:17:09.428Z,0.02
2022-10-03T16:19:09.729Z,0.02
2022-10-03T16:21:09.057Z,0.02
2022-10-03T16:23:09.476Z,0.01
2022-10-03T16:25:11.091Z,0.01
2022-10-03T16:27:09.260Z,0.01
2022-10-03T16:29:10.106Z,0.95
2022-10-03T16:31:10.051Z,0.95
2022-10-03T16:33:09.273Z,0.95
2022-10-03T16:35:09.003Z,0.01
2022-10-03T16:37:09.080Z,0.01
2022-10-03T16:39:08.871Z,0.01
2022-10-03T16:41:09.035Z,0.01
2022-10-03T16:43:09.406Z,0.01
2022-10-03T16:45:08.956Z,0.01
2022-10-03T16:47:09.695Z,0.01
2022-10-03T16:49:09.060Z,0.01
2022-10-03T16:51:12.960Z,0.01
2022-10-03T16:53:09.223Z,0.01
2022-10-03T16:55:09.358Z,0.01
2022-10-03T16:57:09.883Z,0.01
2022-10-03T16:59:09.377Z,0.01
2022-10-03T17:01:40.062Z,0.01
2022-10-03T17:03:11.759Z,0.01
2022-10-03T17:05:09.827Z,0.01
2022-10-03T17:07:11.299Z,0.01
2022-10-03T17:09:37.521Z,0.01
2022-10-03T17:11:09.385Z,0.01
2022-10-03T17:13:14.800Z,0.01
2022-10-03T17:15:09.267Z,0.01
2022-10-03T17:17:10.536Z,0.01
2022-10-03T17:19:11.228Z,0.01
2022-10-03T17:21:09.767Z,0.01
2022-10-03T17:23:09.352Z,0.01
2022-10-03T17:25:13.264Z,0.01
2022-10-03T17:27:09.245Z,0.01
2022-10-03T17:29:09.308Z,0.01
2022-10-03T17:31:09.197Z,0.01
2022-10-03T17:33:15.359Z,0.01
2022-10-03T17:35:08.923Z,0.01
2022-10-03T17:37:09.488Z,0.01
2022-10-03T17:39:46.632Z,0.01
2022-10-03T17:41:09.316Z,0.01
2022-10-03T17:43:09.124Z,0.01
2022-10-03T17:45:10.360Z,0.01
2022-10-03T17:47:10.002Z,0.01
2022-10-03T17:49:09.128Z,0.01
2022-10-03T17:51:09.563Z,0.01
2022-10-03T17:53:08.806Z,0.01
2022-10-03T17:55:09.038Z,0.01
2022-10-03T17:57:10.540Z,0.01
2022-10-03T17:59:09.415Z,0.01
2022-10-03T18:01:12.436Z,0.01
2022-10-03T18:03:09.496Z,0.01
2022-10-03T18:05:09.560Z,0.01
2022-10-03T18:07:09.139Z,0.01
2022-10-03T18:09:09.011Z,0.01
2022-10-03T18:11:08.957Z,0.01
2022-10-03T18:13:09.509Z,0.01
2022-10-03T18:15:09.329Z,0.01
2022-10-03T18:17:09.692Z,0.01
2022-10-03T18:19:09.668Z,0.01
2022-10-03T18:21:09.562Z,0.01
2022-10-03T18:23:14.606Z,0.01
2022-10-03T18:25:09.148Z,0.01
2022-10-03T18:27:27.736Z,0.01
2022-10-03T18:29:13.547Z,0.01
2022-10-03T18:31:08.999Z,0.01
2022-10-03T18:33:09.454Z,0.01
2022-10-03T18:35:10.332Z,0.01
2022-10-03T18:37:09.141Z,0.01
2022-10-03T18:39:08.998Z,0.01
2022-10-03T18:41:09.087Z,0.01
2022-10-03T18:43:09.745Z,0.01
2022-10-03T18:45:08.946Z,0.01
2022-10-03T18:47:09.649Z,0.01
2022-10-03T18:49:46.290Z,0.01
2022-10-03T18:51:09.355Z,0.01
2022-10-03T18:53:09.616Z,0.01
2022-10-03T18:55:13.272Z,0.01
2022-10-03T18:57:08.993Z,0.01
2022-10-03T18:59:09.131Z,0.01
2022-10-03T19:01:17.056Z,0.01
2022-10-03T19:03:09.542Z,0.01
2022-10-03T19:05:09.538Z,0.01
2022-10-03T19:07:15.615Z,0.01
2022-10-03T19:09:08.835Z,0.01
2022-10-03T19:11:09.295Z,0.01
2022-10-03T19:13:09.378Z,0.01
2022-10-03T19:15:09.360Z,0.01
2022-10-03T19:17:10.344Z,0.01
2022-10-03T19:19:09.170Z,0.01
2022-10-03T19:21:09.747Z,0.01
2022-10-03T19:23:09.356Z,0.01
2022-10-03T19:25:38.721Z,0.01
2022-10-03T19:27:10.112Z,0.01
2022-10-03T19:29:09.487Z,0.01
2022-10-03T19:31:09.547Z,0.01
2022-10-03T19:33:10.160Z,0.01
2022-10-03T19:35:09.362Z,0.01
2022-10-03T19:37:09.647Z,0.01
2022-10-03T19:39:09.335Z,0.01
2022-10-03T19:41:09.308Z,0.01
2022-10-03T19:43:08.930Z,0.01
2022-10-03T19:45:09.358Z,0.01
2022-10-03T19:47:09.895Z,0.01
2022-10-03T19:49:08.952Z,0.01
2022-10-03T19:51:09.598Z,0.01
2022-10-03T19:53:09.671Z,0.01
2022-10-03T19:55:08.962Z,0.01
2022-10-03T19:57:09.409Z,0.01
2022-10-03T19:59:09.712Z,0.01
2022-10-03T20:01:12.640Z,0.01
2022-10-03T20:03:09.771Z,0.01
2022-10-03T20:05:12.092Z,0.01
2022-10-03T20:07:09.798Z,0.01
2022-10-03T20:09:09.806Z,0.01
2022-10-03T20:11:09.263Z,0.01
2022-10-03T20:13:09.296Z,0.01
2022-10-03T20:15:08.937Z,0.01
2022-10-03T20:17:09.733Z,0.01
2022-10-03T20:19:09.804Z,0.01
2022-10-03T20:21:08.951Z,0.01
2022-10-03T20:23:08.968Z,0.01
2022-10-03T20:25:09.512Z,0.01
2022-10-03T20:27:09.286Z,0.01
2022-10-03T20:29:09.152Z,0.01
2022-10-03T20:31:08.817Z,0.01
2022-10-03T20:33:09.457Z,0.01
2022-10-03T20:35:09.765Z,0.01
2022-10-03T20:37:09.357Z,0.01
2022-10-03T20:39:08.987Z,0.01
2022-10-03T20:41:09.165Z,0.01
2022-10-03T20:43:09.258Z,0.01
2022-10-03T20:45:09.681Z,0.01
2022-10-03T20:47:09.810Z,0.01
2022-10-03T20:49:09.480Z,0.01
2022-10-03T20:51:09.504Z,0.01
2022-10-03T20:53:08.706Z,0.01
2022-10-03T20:55:09.345Z,0.01
2022-10-03T20:57:09.113Z,0.01
2022-10-03T20:59:13.484Z,0.01
2022-10-03T21:01:12.662Z,0.01
2022-10-03T21:03:09.677Z,0.01
2022-10-03T21:05:09.665Z,0.01
2022-10-03T21:07:11.315Z,0.01
2022-10-03T21:09:08.848Z,0.01
2022-10-03T21:11:09.148Z,0.01
2022-10-03T21:13:09.198Z,0.01
2022-10-03T21:15:09.593Z,0.01
2022-10-03T21:17:10.108Z,0.01
2022-10-03T21:19:09.485Z,0.01
2022-10-03T21:21:09.520Z,0.01
2022-10-03T21:23:09.172Z,0.01
2022-10-03T21:25:09.327Z,0.01
2022-10-03T21:27:09.480Z,0.01
2022-10-03T21:29:09.491Z,0.01
2022-10-03T21:31:09.621Z,0.01
2022-10-03T21:33:09.054Z,0.01
2022-10-03T21:35:09.255Z,0.01
2022-10-03T21:37:09.154Z,0.01
2022-10-03T21:39:09.777Z,0.01
2022-10-03T21:41:09.234Z,0.01
2022-10-03T21:43:09.000Z,0.01
2022-10-03T21:45:09.393Z,0.01
2022-10-03T21:47:10.101Z,0.01
2022-10-03T21:49:10.064Z,0.01
2022-10-03T21:51:09.597Z,0.01
2022-10-03T21:53:09.428Z,0.01
2022-10-03T21:55:09.893Z,0.01
2022-10-03T21:57:16.227Z,0.01
2022-10-03T21:59:09.219Z,0.01
2022-10-03T22:01:10.700Z,0.01
2022-10-03T22:03:09.999Z,0.01
2022-10-03T22:05:09.041Z,0.01
2022-10-03T22:07:09.962Z,0.01
2022-10-03T22:09:09.123Z,0.01
2022-10-03T22:11:08.954Z,0.01
2022-10-03T22:13:09.299Z,0.01
2022-10-03T22:15:10.210Z,0.01
2022-10-03T22:17:10.488Z,0.01
2022-10-03T22:19:09.544Z,0.01
2022-10-03T22:21:09.420Z,0.01
2022-10-03T22:23:09.209Z,0.01
2022-10-03T22:25:08.833Z,0.01
2022-10-03T22:27:09.586Z,0.01
2022-10-03T22:29:09.827Z,0.01
2022-10-03T22:31:10.201Z,0.01
2022-10-03T22:33:09.850Z,0.01
2022-10-03T22:35:09.613Z,0.01
2022-10-03T22:37:09.588Z,0.01
2022-10-03T22:39:09.359Z,0.01
2022-10-03T22:41:10.618Z,0.01
2022-10-03T22:43:09.240Z,0.01
2022-10-03T22:45:09.071Z,0.01
2022-10-03T22:47:09.800Z,0.01
2022-10-03T22:49:09.124Z,0.01
2022-10-03T22:51:09.454Z,0.01
2022-10-03T22:53:09.528Z,0.01
2022-10-03T22:55:08.956Z,0.01
2022-10-03T22:57:09.298Z,0.01
2022-10-03T22:59:08.925Z,0.01
2022-10-03T23:01:13.986Z,0.01
2022-10-03T23:03:10.293Z,0.01
2022-10-03T23:05:09.383Z,0.01
2022-10-03T23:07:09.634Z,0.01
2022-10-03T23:09:09.675Z,0.01
2022-10-03T23:11:09.073Z,0.01
2022-10-03T23:13:09.498Z,0.01
2022-10-03T23:15:09.389Z,0.01
2022-10-03T23:17:09.946Z,0.01
2022-10-03T23:19:09.720Z,0.01
2022-10-03T23:21:09.337Z,0.01
2022-10-03T23:23:09.142Z,0.01
2022-10-03T23:25:09.923Z,0.01
2022-10-03T23:27:08.980Z,0.01
2022-10-03T23:29:09.897Z,0.01
2022-10-03T23:31:10.140Z,0.01
2022-10-03T23:33:09.504Z,0.01
2022-10-03T23:35:09.440Z,0.01
2022-10-03T23:37:09.390Z,0.01
2022-10-03T23:39:09.280Z,0.01
2022-10-03T23:41:09.644Z,0.01
2022-10-03T23:43:09.651Z,0.01
2022-10-03T23:45:12.099Z,0.01
2022-10-03T23:47:09.599Z,0.01
2022-10-03T23:49:09.202Z,0.01
2022-10-03T23:51:09.734Z,0.01
2022-10-03T23:53:09.060Z,0.01
2022-10-03T23:55:09.474Z,0.01
2022-10-03T23:57:09.006Z,0.01
2022-10-03T23:59:09.220Z,0.01
